• Join FlightAware (Why Join?)
  • Login
  • US Flag 
04:09AM EDT


 

Airport Tracker/Info


-or-


 

Live Flight TrackerFlight Track Log ✈ UAL4150 ✈ 22-Jun-2013 ✈ KATL - KIAH

Flight Track Log - Related Links

Times and Time Zones

All times are in EDT time to prevent confusion due to time zone crossing. See the UAL4150 flight status page for this flight to view local times or setup timezone preferences in your user account.

Time Position Orientation Groundspeed Altitude Reporting Facility
EDT Latitude Longitude Course Direction KTS MPH feet Rate Location/Type
11:02AM 33.6539 -84.3633 234° Southwest 454 522 2,600  Level Atlanta Center
11:03AM 33.6875 -84.2883 62° Northeast 368 423 4,900 2,460 Climbing Atlanta Center
11:04AM 33.7606 -84.2811 North 247 284 7,600 2,580 Climbing Atlanta Center
11:05AM 33.8001 -84.4594 270° West  Level FlightAware Approximate
11:05AM 33.8147 -84.3489 314° West 304 350 10,100  Level Atlanta Center
11:06AM 33.7915 -84.5837 239° Southwest  Level FlightAware Approximate
11:06AM 33.8103 -84.4589 267° West 282 325 11,500  Level Atlanta Center
11:07AM 33.7299 -84.6870 234° Southwest  Level FlightAware Approximate
11:07AM 33.8036 -84.5789 266° West 345 397 13,400  Level Atlanta Center
11:08AM 33.6670 -84.7891 234° Southwest  Level FlightAware Approximate
11:08AM 33.7572 -84.6658 237° Southwest 351 404 15,000  Level Atlanta Center
11:09AM 33.6942 -84.7603 231° Southwest 348 400 16,600 1,380 Climbing Atlanta Center
11:10AM 33.6369 -84.8722 238° Southwest 373 429 17,800 1,500 Climbing Atlanta Center
11:11AM 33.5964 -84.9864 247° West 378 435 19,600 1,740 Climbing Atlanta Center
11:12AM 33.5558 -85.1033 247° West 384 442 21,300 1,620 Climbing Atlanta Center
11:13AM 33.5131 -85.2272 248° West 375 432 22,900 1,560 Climbing Atlanta Center
11:14AM 33.4931 -85.3492 259° West 369 425 24,500 1,860 Climbing Atlanta Center
11:15AM 33.4728 -85.4683 259° West 369 425 26,700 4,740 Climbing Atlanta Center
11:16AM 33.4528 -85.5800 258° West 364 419 34,000 1,560 Climbing Atlanta Center
11:17AM 33.4178 -85.6939 250° West 364 419 29,900 -1,500 Descending Atlanta Center
11:18AM 33.3936 -85.7806 252° West 358 412 31,000 1,320 Climbing Atlanta Center
11:19AM 33.3564 -85.9017 250° West 352 405 32,600 1,500 Climbing Atlanta Center
11:20AM 33.3256 -86.0078 251° West 352 405 34,000 660 Climbing Atlanta Center
11:21AM 33.2903 -86.1214 250° West 352 405 34,000  Level Atlanta Center
11:22AM 33.2569 -86.2472 252° West 380 437 34,000  Level Atlanta Center
11:23AM 33.2167 -86.3853 251° West 408 470 34,000  Level Atlanta Center
11:24AM 33.1764 -86.5231 251° West 433 498 34,000  Level Atlanta Center
11:25AM 33.1361 -86.6608 251° West 444 511 34,000  Level Atlanta Center
11:26AM 33.0953 -86.8011 251° West 449 517 34,000  Level Atlanta Center
11:27AM 33.0525 -86.9433 250° West 456 525 34,000  Level Atlanta Center
11:28AM 33.0117 -87.0808 251° West 456 525 34,000  Level Atlanta Center
11:29AM 32.9703 -87.2253 251° West 462 532 34,000  Level Atlanta Center
11:30AM 32.9311 -87.3650 252° West 455 524 34,000  Level Atlanta Center
11:31AM 32.8856 -87.5067 249° West 462 532 34,000  Level Atlanta Center
11:33AM 32.8289 -87.6847 249° West 457 526 34,000  Level Memphis Center
11:34AM 32.7861 -87.8269 250° West 450 518 34,000  Level Memphis Center
11:35AM 32.7492 -87.9664 253° West 450 518 34,000  Level Memphis Center
11:36AM 32.7036 -88.1058 249° West 450 518 34,000  Level Memphis Center
11:37AM 32.6603 -88.2475 250° West 450 518 34,000  Level Memphis Center
11:38AM 32.6208 -88.3842 251° West 450 518 34,000  Level Memphis Center
11:39AM 32.5747 -88.5231 249° West 450 518 34,000  Level Memphis Center
11:40AM 32.5331 -88.6594 250° West 450 518 34,000  Level Memphis Center
11:41AM 32.4889 -88.7958 249° West 450 518 34,000  Level Memphis Center
11:42AM 32.4447 -88.9394 250° West 450 518 34,000  Level Memphis Center
11:43AM 32.4022 -89.0753 250° West 455 524 34,000  Level Memphis Center
11:44AM 32.3556 -89.2161 249° West 449 517 34,000  Level Memphis Center
11:45AM 32.3108 -89.3544 249° West 449 517 34,000  Level Memphis Center
11:46AM 32.2658 -89.4925 249° West 449 517 34,000  Level Memphis Center
11:47AM 32.2231 -89.6306 250° West 449 517 34,000  Level Memphis Center
11:48AM 32.1758 -89.7708 248° West 449 517 34,000  Level Memphis Center
11:49AM 32.1303 -89.9133 249° West 449 517 34,000  Level Memphis Center
11:50AM 32.0850 -90.0533 249° West 449 517 34,000  Level Memphis Center
11:50AM 32.0631 -90.1256 250° West 455 524 34,000  Level Houston Center
11:51AM 32.0175 -90.2644 249° West 455 524 34,000  Level Houston Center
11:52AM 31.9725 -90.4017 249° West 452 520 34,000  Level Houston Center
11:53AM 31.9169 -90.5683 249° West 454 522 34,000 -60 Level Houston Center
11:54AM 31.8711 -90.7072 249° West 456 525 33,900  Descending Houston Center
11:55AM 31.8275 -90.8394 249° West 444 511 34,000  Climbing Houston Center
11:57AM 31.7817 -90.9758 248° West 441 507 34,000  Level Houston Center
11:58AM 31.7272 -91.1358 248° West 443 510 34,000  Level Houston Center
11:59AM 31.6806 -91.2700 248° West 442 509 34,000  Level Houston Center
12:00PM 31.6339 -91.4047 248° West 444 511 34,000  Level Houston Center
12:01PM 31.5886 -91.5394 248° West 444 511 34,000  Level Houston Center
12:02PM 31.5425 -91.6733 248° West 443 510 34,000  Level Houston Center
12:03PM 31.4964 -91.8081 248° West 445 512 34,000  Level Houston Center
12:04PM 31.4414 -91.9697 248° West 445 512 34,000  Level Houston Center
12:05PM 31.3997 -92.0872 247° West 445 512 34,000  Level Houston Center
12:06PM 31.3536 -92.2208 248° West 444 511 34,000  Level Houston Center
12:07PM 31.2969 -92.3806 247° West 444 511 34,000  Level Houston Center
12:08PM 31.2478 -92.5172 247° West 450 518 34,000  Level Houston Center
12:09PM 31.1806 -92.6433 238° Southwest 457 526 34,000  Level Houston Center
12:10PM 31.1100 -92.7644 236° Southwest 455 524 34,000  Level Houston Center
12:11PM 31.0414 -92.8864 237° Southwest 454 522 34,000  Level Houston Center
12:12PM 30.9581 -93.0347 237° Southwest 455 524 34,000  Level Houston Center
12:13PM 30.8889 -93.1569 237° Southwest 454 522 34,000 -480 Level Houston Center
12:14PM 30.8183 -93.2797 236° Southwest 456 525 33,000 -1,620 Descending Houston Center
12:15PM 30.7478 -93.4047 237° Southwest 463 533 30,700 -2,400 Descending Houston Center
12:16PM 30.6792 -93.5267 237° Southwest 458 527 28,100 -2,640 Descending Houston Center
12:17PM 30.5953 -93.6747 237° Southwest 464 534 25,300 -2,460 Descending Houston Center
12:18PM 30.5261 -93.7936 236° Southwest 454 522 23,100 -2,280 Descending Houston Center
12:19PM 30.4592 -93.9111 237° Southwest 445 512 20,600 -2,400 Descending Houston Center
12:20PM 30.3942 -94.0225 236° Southwest 425 489 18,200 -2,280 Descending Houston Center
12:21PM 30.3333 -94.1275 236° Southwest 397 457 15,900 -2,520 Descending Houston Center
12:22PM 30.2628 -94.2503 236° Southwest 384 442 13,100 -1,980 Descending Houston Center
12:23PM 30.2069 -94.3464 236° Southwest 362 417 11,900 -1,020 Descending Houston Center
12:24PM 30.1839 -94.4458 255° West 318 366 11,000 -1,140 Descending Houston Center
12:25PM 30.1672 -94.5369 258° West 301 346 9,600 -1,440 Descending Houston Center
12:27PM 30.1525 -94.6256 259° West 285 328 8,100 -1,560 Descending Houston Center
12:28PM 30.1347 -94.7317 259° West 283 326 6,400 -1,020 Descending Houston Center
12:29PM 30.1206 -94.8169 259° West 276 318 6,000 -240 Descending Houston Center
12:30PM 30.1061 -94.9006 259° West 268 308 6,000  Level Houston Center
12:31PM 30.1053 -94.9894 269° West 275 316 6,000  Level Houston Center
12:32PM 30.1064 -95.0781 271° West 277 319 6,000  Level Houston Center
12:33PM 30.1061 -95.1797 270° West 269 310 6,000  Level Houston Center
12:34PM 30.1067 -95.2586 270° West 252 290 6,000 -120 Level Houston Center
12:35PM 30.1058 -95.3358 269° West 240 276 5,800 -900 Descending Houston Center
12:36PM 30.1050 -95.4067 269° West 233 268 4,200 -1,440 Descending Houston Center
12:37PM 30.0833 -95.4808 251° West 199 229 2,900 -1,380 Descending Houston Center